createdAt,value
2016-06-30T00:00:18.416Z,74.99
2016-06-30T00:01:17.799Z,74.99
2016-06-30T00:02:17.772Z,75.56
2016-06-30T00:03:17.756Z,75.76
2016-06-30T00:04:18.368Z,75.47
2016-06-30T00:05:17.755Z,75.56
2016-06-30T00:06:17.741Z,75.37
2016-06-30T00:07:18.838Z,75.85
2016-06-30T00:08:18.849Z,76.04
2016-06-30T00:09:17.746Z,76.23
2016-06-30T00:10:18.869Z,76.33
2016-06-30T00:11:17.742Z,76.04
2016-06-30T00:12:18.272Z,76.81
2016-06-30T00:13:17.736Z,76.71
2016-06-30T00:14:18.366Z,76.62
2016-06-30T00:15:18.347Z,76.52
2016-06-30T00:17:17.725Z,77.19
2016-06-30T00:18:18.346Z,76.77
2016-06-30T00:19:17.729Z,77.48
2016-06-30T00:20:18.200Z,77.53
2016-06-30T00:21:18.199Z,77.15
2016-06-30T00:22:17.779Z,77.25
2016-06-30T00:23:17.716Z,78.01
2016-06-30T00:24:18.329Z,77.92
2016-06-30T00:25:17.713Z,78.39
2016-06-30T00:26:17.710Z,78.01
2016-06-30T00:27:17.708Z,78.3
2016-06-30T00:28:17.696Z,78.58
2016-06-30T00:29:18.308Z,78.49
2016-06-30T00:30:17.695Z,78.68
2016-06-30T00:31:18.317Z,79.16
2016-06-30T00:32:17.694Z,79.06
2016-06-30T00:33:17.700Z,78.78
2016-06-30T00:34:17.687Z,79.06
2016-06-30T00:35:18.292Z,79.54
2016-06-30T00:36:18.291Z,79.54
2016-06-30T00:37:17.685Z,79.64
2016-06-30T00:38:18.287Z,80.02
2016-06-30T00:39:17.672Z,79.83
2016-06-30T00:40:17.666Z,80.3
2016-06-30T00:41:18.379Z,79.83
2016-06-30T00:42:18.611Z,79.73
2016-06-30T00:43:18.267Z,79.93
2016-06-30T00:44:18.357Z,80.02
2016-06-30T00:45:18.834Z,80.5
2016-06-30T00:46:18.266Z,80.3
2016-06-30T00:47:18.265Z,80.02
2016-06-30T00:48:18.291Z,80.5
2016-06-30T00:49:17.658Z,80.69
2016-06-30T00:50:18.248Z,80.79
2016-06-30T00:51:17.790Z,80.88
2016-06-30T00:52:18.299Z,81.26
2016-06-30T00:53:18.239Z,81.16
2016-06-30T00:54:17.790Z,80.98
2016-06-30T00:55:17.833Z,81.16
2016-06-30T00:56:17.626Z,81.74
2016-06-30T00:57:18.231Z,81.36
2016-06-30T00:58:18.231Z,81.45
2016-06-30T00:59:17.622Z,81.32
2016-06-30T01:00:18.231Z,81.99
2016-06-30T01:01:18.217Z,81.89
2016-06-30T01:02:17.612Z,81.99
2016-06-30T01:03:18.211Z,82.56
2016-06-30T01:04:17.642Z,82.46
2016-06-30T01:05:17.607Z,82.75
2016-06-30T01:06:18.210Z,82.94
2016-06-30T01:07:18.248Z,83.23
2016-06-30T01:08:18.209Z,82.75
2016-06-30T01:09:18.188Z,82.84
2016-06-30T01:10:18.194Z,83.04
2016-06-30T01:11:17.595Z,82.94
2016-06-30T01:12:18.191Z,83.8
2016-06-30T01:13:18.226Z,83.33
2016-06-30T01:14:18.200Z,83.7
2016-06-30T01:15:17.600Z,83.51
2016-06-30T01:16:17.568Z,83.9
2016-06-30T01:17:18.188Z,83.51
2016-06-30T01:18:18.176Z,83.8
2016-06-30T01:19:17.575Z,84.19
2016-06-30T01:20:17.557Z,84.09
2016-06-30T01:21:18.186Z,84.66
2016-06-30T01:22:17.555Z,84.28
2016-06-30T01:23:18.158Z,84.95
2016-06-30T01:24:17.543Z,85.05
2016-06-30T01:25:18.973Z,84.66
2016-06-30T01:26:18.144Z,84.47
2016-06-30T01:27:18.239Z,84.76
2016-06-30T01:28:18.054Z,84.66
2016-06-30T01:29:18.141Z,85.14
2016-06-30T01:30:18.153Z,85.24
2016-06-30T01:31:18.134Z,85.42
2016-06-30T01:32:18.138Z,85.14
2016-06-30T01:33:18.131Z,85.62
2016-06-30T01:34:17.515Z,85.52
2016-06-30T01:35:19.466Z,85.71
2016-06-30T01:36:17.527Z,85.24
2016-06-30T01:37:18.287Z,85.52
2016-06-30T01:38:18.579Z,85.71
2016-06-30T01:39:18.107Z,85.52
2016-06-30T01:40:17.517Z,85.52
2016-06-30T01:41:17.497Z,86.19
2016-06-30T01:42:18.102Z,86.38
2016-06-30T01:43:18.122Z,85.52
2016-06-30T01:44:18.110Z,86.1
2016-06-30T01:45:18.126Z,85.62
2016-06-30T01:46:17.513Z,85.62
2016-06-30T01:47:18.092Z,85.62
2016-06-30T01:48:17.475Z,85.81
2016-06-30T01:49:17.469Z,85.81
2016-06-30T01:50:18.097Z,86
2016-06-30T01:51:17.467Z,85.9
2016-06-30T01:52:18.089Z,86
2016-06-30T01:53:17.462Z,86
2016-06-30T01:54:17.458Z,86
2016-06-30T01:55:17.457Z,86.1
2016-06-30T01:56:18.073Z,85.9
2016-06-30T01:57:18.068Z,86.19
2016-06-30T01:58:18.058Z,86.47
2016-06-30T01:59:17.438Z,86.1
2016-06-30T02:00:19.014Z,86.19
2016-06-30T02:01:18.053Z,86.38
2016-06-30T02:02:17.431Z,86.47
2016-06-30T02:03:18.229Z,86.34
2016-06-30T02:04:17.447Z,86.15
2016-06-30T02:05:17.425Z,86.15
2016-06-30T02:06:17.418Z,85.96
2016-06-30T02:07:18.034Z,86.24
2016-06-30T02:08:18.025Z,86.24
2016-06-30T02:09:18.379Z,86.72
2016-06-30T02:10:18.035Z,86.53
2016-06-30T02:11:18.172Z,86.63
2016-06-30T02:12:17.398Z,86.82
2016-06-30T02:13:18.030Z,86.63
2016-06-30T02:14:17.407Z,86.24
2016-06-30T02:15:17.403Z,86.53
2016-06-30T02:16:17.998Z,86.53
2016-06-30T02:17:17.389Z,86.91
2016-06-30T02:18:17.997Z,86.91
2016-06-30T02:19:17.994Z,87.01
2016-06-30T02:20:17.978Z,87.01
2016-06-30T02:21:17.986Z,86.82
2016-06-30T02:22:17.371Z,87.2
2016-06-30T02:23:17.981Z,87.01
2016-06-30T02:24:17.999Z,86.91
2016-06-30T02:25:17.972Z,87.01
2016-06-30T02:26:17.355Z,87.01
2016-06-30T02:27:17.363Z,87.2
2016-06-30T02:28:17.992Z,87.48
2016-06-30T02:29:17.351Z,87.1
2016-06-30T02:30:17.951Z,87.2
2016-06-30T02:31:17.954Z,87.29
2016-06-30T02:32:17.387Z,87.48
2016-06-30T02:33:17.391Z,87.48
2016-06-30T02:34:17.944Z,87.58
2016-06-30T02:35:17.332Z,87.48
2016-06-30T02:36:17.955Z,87.77
2016-06-30T02:37:17.946Z,87.2
2016-06-30T02:38:17.934Z,87.29
2016-06-30T02:39:17.319Z,87.68
2016-06-30T02:40:17.920Z,87.77
2016-06-30T02:41:17.917Z,87.87
2016-06-30T02:42:17.308Z,87.87
2016-06-30T02:43:17.909Z,87.87
2016-06-30T02:44:18.625Z,87.58
2016-06-30T02:45:17.932Z,87.48
2016-06-30T02:46:19.328Z,87.77
2016-06-30T02:47:17.901Z,87.15
2016-06-30T02:48:17.300Z,88.06
2016-06-30T02:49:17.899Z,88.44
2016-06-30T02:50:17.294Z,87.82
2016-06-30T02:51:17.275Z,87.73
2016-06-30T02:52:17.891Z,87.96
2016-06-30T02:53:18.745Z,88.11
2016-06-30T02:54:17.886Z,88.11
2016-06-30T02:55:19.374Z,87.82
2016-06-30T02:56:17.903Z,88.15
2016-06-30T02:57:18.318Z,88.15
2016-06-30T02:58:17.798Z,88.44
2016-06-30T02:59:17.858Z,88.44
2016-06-30T03:00:17.852Z,88.06
2016-06-30T03:01:17.241Z,88.73
2016-06-30T03:02:17.850Z,88.92
2016-06-30T03:03:17.847Z,88.63
2016-06-30T03:04:17.841Z,88.44
2016-06-30T03:05:17.232Z,88.73
2016-06-30T03:06:17.224Z,88.82
2016-06-30T03:07:17.836Z,88.73
2016-06-30T03:08:17.829Z,88.63
2016-06-30T03:09:17.833Z,88.63
2016-06-30T03:10:17.221Z,88.73
2016-06-30T03:11:17.822Z,88.54
2016-06-30T03:12:17.811Z,88.54
2016-06-30T03:13:17.205Z,88.44
2016-06-30T03:14:17.207Z,88.54
2016-06-30T03:15:17.196Z,88.54
2016-06-30T03:16:17.415Z,88.54
2016-06-30T03:17:17.182Z,88.63
2016-06-30T03:18:17.197Z,88.82
2016-06-30T03:19:18.691Z,88.54
2016-06-30T03:20:18.090Z,88.77
2016-06-30T03:21:32.052Z,89.15
2016-06-30T03:22:17.993Z,89.06
2016-06-30T03:23:17.950Z,88.77
2016-06-30T03:24:17.782Z,88.48
2016-06-30T03:25:17.420Z,88.68
2016-06-30T03:26:17.774Z,88.68
2016-06-30T03:27:17.774Z,88.87
2016-06-30T03:28:17.169Z,88.48
2016-06-30T03:29:17.167Z,88.29
2016-06-30T03:30:17.178Z,88.48
2016-06-30T03:31:17.453Z,88.58
2016-06-30T03:32:17.753Z,88.39
2016-06-30T03:33:17.150Z,88.39
2016-06-30T03:34:17.137Z,88.34
2016-06-30T03:35:17.766Z,88.81
2016-06-30T03:36:17.742Z,88.62
2016-06-30T03:37:17.738Z,88.91
2016-06-30T03:38:17.746Z,88.91
2016-06-30T03:39:17.745Z,88.72
2016-06-30T03:40:17.741Z,88.72
2016-06-30T03:41:17.727Z,88.72
2016-06-30T03:42:17.116Z,88.15
2016-06-30T03:43:17.737Z,88.62
2016-06-30T03:44:17.123Z,88.15
2016-06-30T03:45:17.743Z,88.43
2016-06-30T03:46:17.708Z,88.19
2016-06-30T03:47:17.740Z,87.81
2016-06-30T03:48:17.122Z,88.19
2016-06-30T03:49:17.704Z,88.19
2016-06-30T03:50:17.109Z,87.9
2016-06-30T03:51:17.706Z,87.52
2016-06-30T03:52:17.697Z,87.62
2016-06-30T03:53:17.702Z,87.85
2016-06-30T03:54:17.694Z,87.37
2016-06-30T03:55:17.695Z,87.76
2016-06-30T03:56:17.087Z,87.47
2016-06-30T03:57:17.694Z,87.32
2016-06-30T03:58:17.691Z,87.23
2016-06-30T03:59:17.069Z,86.69
2016-06-30T04:00:17.095Z,85.49
2016-06-30T04:01:17.682Z,84.95
2016-06-30T04:02:18.582Z,84.91
2016-06-30T04:03:18.606Z,83.41
2016-06-30T04:04:17.679Z,82.97
2016-06-30T04:05:17.074Z,81.72
2016-06-30T04:06:17.074Z,80.8
2016-06-30T04:07:17.711Z,80.07
2016-06-30T04:08:17.085Z,79.05
2016-06-30T04:09:17.694Z,77.94
2016-06-30T04:10:17.682Z,76.78
2016-06-30T04:11:18.569Z,75.23
2016-06-30T04:12:18.416Z,74.36
2016-06-30T04:13:18.646Z,73.33
2016-06-30T04:14:17.725Z,71.92
2016-06-30T04:15:18.268Z,71.09
2016-06-30T04:16:17.699Z,69.78
2016-06-30T04:17:17.173Z,68.84
2016-06-30T04:18:17.706Z,68.17
2016-06-30T04:19:17.707Z,67.69
2016-06-30T04:20:17.711Z,66.85
2016-06-30T04:21:17.708Z,66.17
2016-06-30T04:22:17.717Z,65.69
2016-06-30T04:23:17.714Z,64.82
2016-06-30T04:24:17.113Z,64.08
2016-06-30T04:25:17.744Z,63.4
2016-06-30T04:26:17.731Z,63.14
2016-06-30T04:27:17.136Z,62.27
2016-06-30T04:28:17.123Z,62.37
2016-06-30T04:29:17.775Z,61.4
2016-06-30T04:30:17.744Z,60.37
2016-06-30T04:31:17.753Z,59.79
2016-06-30T04:32:17.760Z,59.72
2016-06-30T04:33:17.154Z,58.98
2016-06-30T04:34:17.778Z,58.3
2016-06-30T04:35:17.165Z,57.45
2016-06-30T04:36:17.174Z,56.81
2016-06-30T04:37:17.833Z,56.13
2016-06-30T04:38:17.729Z,55.28
2016-06-30T04:39:17.339Z,54.72
2016-06-30T04:41:17.805Z,52.52
2016-06-30T04:42:17.812Z,52.42
2016-06-30T04:43:17.270Z,51.57
2016-06-30T04:44:17.830Z,50.6
2016-06-30T04:45:17.830Z,50.43
2016-06-30T04:46:17.836Z,49.66
2016-06-30T04:47:18.003Z,48.97
2016-06-30T04:48:17.859Z,48.78
2016-06-30T04:50:17.264Z,47.71
2016-06-30T04:51:17.280Z,47.54
2016-06-30T04:52:17.276Z,47.44
2016-06-30T04:53:17.552Z,46.78
2016-06-30T04:54:17.297Z,45.91
2016-06-30T04:55:17.345Z,45.25
2016-06-30T04:56:17.922Z,44.67
2016-06-30T04:57:17.323Z,44.2
2016-06-30T04:58:17.936Z,43.81
2016-06-30T04:59:17.347Z,43.13
2016-06-30T05:00:17.345Z,42.66
2016-06-30T05:01:17.360Z,42.28
2016-06-30T05:02:17.372Z,41.89
2016-06-30T05:03:17.985Z,41.69
2016-06-30T05:04:17.396Z,41.22
2016-06-30T05:05:17.452Z,40.64
2016-06-30T05:06:17.408Z,40.35
2016-06-30T05:07:17.410Z,40.25
2016-06-30T05:08:18.054Z,39.29
2016-06-30T05:09:17.433Z,39.49
2016-06-30T05:10:18.055Z,39.1
2016-06-30T05:11:18.058Z,38.71
2016-06-30T05:12:17.455Z,38.61
2016-06-30T05:13:18.075Z,38.12
2016-06-30T05:14:17.474Z,38.22
2016-06-30T05:15:18.103Z,37.83
2016-06-30T05:16:18.104Z,37.65
2016-06-30T05:17:17.502Z,38.04
2016-06-30T05:18:18.123Z,37.17
2016-06-30T05:19:17.519Z,37.65
2016-06-30T05:20:18.135Z,36.98
2016-06-30T05:21:18.158Z,36.31
2016-06-30T05:22:18.984Z,36.11
2016-06-30T05:23:18.176Z,35.64
2016-06-30T05:24:17.584Z,35.25
2016-06-30T05:25:18.197Z,35.07
2016-06-30T05:26:17.670Z,34.68
2016-06-30T05:27:17.920Z,33.61
2016-06-30T05:28:18.222Z,33.72
2016-06-30T05:29:17.639Z,32.84
2016-06-30T05:31:19.746Z,31.88
2016-06-30T05:32:17.851Z,31.2
2016-06-30T05:33:19.112Z,31.01
2016-06-30T05:34:19.035Z,30.52
2016-06-30T05:35:18.104Z,29.85
2016-06-30T05:36:18.319Z,29.66
2016-06-30T05:37:18.371Z,29.28
2016-06-30T05:38:18.383Z,28.89
2016-06-30T05:39:17.732Z,28.91
2016-06-30T05:40:17.780Z,28.31
2016-06-30T05:41:17.755Z,28.23
2016-06-30T05:42:18.431Z,27.66
2016-06-30T05:43:17.787Z,26.98
2016-06-30T05:44:17.805Z,26.89
2016-06-30T05:45:17.818Z,26.31
2016-06-30T05:46:18.437Z,26.23
2016-06-30T05:47:17.843Z,25.94
2016-06-30T05:48:18.463Z,25.74
2016-06-30T05:49:18.475Z,24.98
2016-06-30T05:50:18.482Z,24.49
2016-06-30T05:51:17.893Z,24.6
2016-06-30T05:52:18.520Z,23.73
2016-06-30T05:53:17.918Z,23.54
2016-06-30T05:54:18.546Z,23.35
2016-06-30T05:55:18.916Z,22.75
2016-06-30T05:57:18.634Z,21.88
2016-06-30T05:59:18.823Z,21.48
2016-06-30T06:00:18.633Z,21.3
2016-06-30T06:01:18.038Z,20.9
2016-06-30T06:02:18.050Z,20.42
2016-06-30T06:03:18.104Z,19.93
2016-06-30T06:04:18.679Z,19.63
2016-06-30T06:06:18.769Z,19.13
2016-06-30T06:07:18.802Z,19.42
2016-06-30T06:08:18.959Z,19.71
2016-06-30T06:09:18.777Z,19.23
2016-06-30T06:10:18.542Z,18.93
2016-06-30T06:11:18.955Z,18.93
2016-06-30T06:12:18.219Z,18.65
2016-06-30T06:13:18.838Z,18.54
2016-06-30T06:14:18.862Z,18.06
2016-06-30T06:15:18.259Z,18.06
2016-06-30T06:16:18.887Z,17.76
2016-06-30T06:17:18.917Z,17.76
2016-06-30T06:18:18.929Z,17.86
2016-06-30T06:19:18.943Z,17.57
2016-06-30T06:20:18.350Z,17.76
2016-06-30T06:21:18.983Z,17.57
2016-06-30T06:22:18.982Z,17.66
2016-06-30T06:23:18.420Z,17.86
2016-06-30T06:24:18.425Z,17.86
2016-06-30T06:25:18.439Z,17.85
2016-06-30T06:26:18.447Z,17.66
2016-06-30T06:27:18.473Z,17.47
2016-06-30T06:28:19.095Z,17.07
2016-06-30T06:29:18.520Z,17.16
2016-06-30T06:30:19.137Z,17.07
2016-06-30T06:31:19.170Z,17.55
2016-06-30T06:32:18.548Z,17.83
2016-06-30T06:33:19.177Z,18.04
2016-06-30T06:34:19.191Z,17.54
2016-06-30T06:35:19.203Z,18.02
2016-06-30T06:36:18.637Z,18.51
2016-06-30T06:37:19.254Z,18.5
2016-06-30T06:38:18.683Z,18.69
2016-06-30T06:39:19.666Z,19.38
2016-06-30T06:40:20.249Z,19.17
2016-06-30T06:41:19.828Z,19.37
2016-06-30T06:42:19.306Z,19.46
2016-06-30T06:43:19.656Z,19.48
2016-06-30T06:44:19.344Z,19.67
2016-06-30T06:45:19.363Z,19.18
2016-06-30T06:46:19.376Z,19.76
2016-06-30T06:47:19.386Z,19.86
2016-06-30T06:48:18.791Z,19.96
2016-06-30T06:49:20.665Z,19.76
2016-06-30T06:50:19.423Z,19.65
2016-06-30T06:51:18.843Z,19.64
2016-06-30T06:52:19.215Z,20.04
2016-06-30T06:53:20.132Z,19.84
2016-06-30T06:54:19.927Z,19.94
2016-06-30T06:55:19.791Z,20.53
2016-06-30T06:56:19.512Z,20.82
2016-06-30T06:57:18.935Z,20.23
2016-06-30T06:58:19.552Z,20.82
2016-06-30T06:59:18.949Z,20.72
2016-06-30T07:00:18.961Z,20.53
2016-06-30T07:01:19.590Z,20.72
2016-06-30T07:02:19.605Z,20.54
2016-06-30T07:03:19.622Z,20.64
2016-06-30T07:04:19.659Z,20.25
2016-06-30T07:05:19.642Z,20.56
2016-06-30T07:06:19.718Z,20.56
2016-06-30T07:07:19.683Z,20.37
2016-06-30T07:08:19.100Z,20.47
2016-06-30T07:09:19.713Z,20.38
2016-06-30T07:10:19.133Z,20.38
2016-06-30T07:11:19.753Z,20.49
2016-06-30T07:12:19.163Z,20.49
2016-06-30T07:13:19.789Z,19.9
2016-06-30T07:14:19.881Z,19.92
2016-06-30T07:15:34.936Z,20.01
2016-06-30T07:16:19.984Z,20.03
2016-06-30T07:17:20.250Z,20.03
2016-06-30T07:18:19.869Z,19.82
2016-06-30T07:19:19.574Z,19.54
2016-06-30T07:20:19.913Z,19.44
2016-06-30T07:21:19.317Z,18.95
2016-06-30T07:22:19.969Z,19.55
2016-06-30T07:23:19.974Z,19.35
2016-06-30T07:24:20.024Z,19.26
2016-06-30T07:25:20.012Z,19.06
2016-06-30T07:26:19.421Z,18.67
2016-06-30T07:27:20.047Z,18.67
2016-06-30T07:28:19.453Z,18.56
2016-06-30T07:29:20.112Z,18.86
2016-06-30T07:30:20.107Z,18.57
2016-06-30T07:31:20.123Z,18.08
2016-06-30T07:32:19.552Z,18.08
2016-06-30T07:33:20.171Z,18.08
2016-06-30T07:34:20.194Z,17.69
2016-06-30T07:35:19.591Z,17.6
2016-06-30T07:36:20.222Z,17.8
2016-06-30T07:37:20.240Z,17.51
2016-06-30T07:38:19.658Z,17.22
2016-06-30T07:39:20.284Z,17.13
2016-06-30T07:40:19.700Z,16.93
2016-06-30T07:41:20.322Z,16.64
2016-06-30T07:42:19.739Z,16.44
2016-06-30T07:43:20.366Z,16.84
2016-06-30T07:44:19.773Z,16.35
2016-06-30T07:45:20.409Z,16.25
2016-06-30T07:46:19.823Z,16.35
2016-06-30T07:47:20.450Z,16.74
2016-06-30T07:48:20.469Z,16.63
2016-06-30T07:49:19.886Z,16.43
2016-06-30T07:50:19.913Z,16.53
2016-06-30T07:51:19.918Z,17.31
2016-06-30T07:52:20.535Z,17.11
2016-06-30T07:53:20.564Z,17.11
2016-06-30T07:54:20.580Z,17.21
2016-06-30T07:55:20.614Z,17.11
2016-06-30T07:56:20.621Z,16.93
2016-06-30T07:58:20.781Z,17.12
2016-06-30T07:59:22.244Z,16.93
2016-06-30T08:00:20.087Z,16.83
2016-06-30T08:01:20.713Z,16.63
2016-06-30T08:02:21.400Z,16.53
2016-06-30T08:03:20.770Z,16.23
2016-06-30T08:04:20.808Z,16.62
2016-06-30T08:05:20.806Z,16.72
2016-06-30T08:06:20.543Z,16.61
2016-06-30T08:07:21.701Z,16.71
2016-06-30T08:08:20.990Z,16.61
2016-06-30T08:09:22.108Z,16.61
2016-06-30T08:10:20.889Z,17
2016-06-30T08:11:20.908Z,16.61
2016-06-30T08:12:20.929Z,16.61
2016-06-30T08:13:20.950Z,16.41
2016-06-30T08:14:20.975Z,16.61
2016-06-30T08:15:20.987Z,17.11
2016-06-30T08:16:20.999Z,17.11
2016-06-30T08:17:20.413Z,16.62
2016-06-30T08:18:21.039Z,16.23
2016-06-30T08:19:21.062Z,15.75
2016-06-30T08:20:21.095Z,15.25
2016-06-30T08:21:20.487Z,15.45
2016-06-30T08:22:21.113Z,15.25
2016-06-30T08:23:21.177Z,15.25
2016-06-30T08:24:21.165Z,15.06
2016-06-30T08:25:20.561Z,14.87
2016-06-30T08:26:20.608Z,14.48
2016-06-30T08:27:21.225Z,14.29
2016-06-30T08:28:20.627Z,14.49
2016-06-30T08:29:21.258Z,13.5
2016-06-30T08:30:21.281Z,13.51
2016-06-30T08:31:21.295Z,12.91
2016-06-30T08:32:21.770Z,12.51
2016-06-30T08:33:22.171Z,12.31
2016-06-30T08:34:21.371Z,12.11
2016-06-30T08:35:21.382Z,12.01
2016-06-30T08:36:21.908Z,11.91
2016-06-30T08:37:21.434Z,11.8
2016-06-30T08:38:21.460Z,11.7
2016-06-30T08:39:21.463Z,11.99
2016-06-30T08:40:21.481Z,12.38
2016-06-30T08:41:21.661Z,11.79
2016-06-30T08:42:21.519Z,12.37
2016-06-30T08:43:21.939Z,12.57
2016-06-30T08:44:20.948Z,12.76
2016-06-30T08:45:21.587Z,12.76
2016-06-30T08:46:20.988Z,13.24
2016-06-30T08:47:21.616Z,13.34
2016-06-30T08:48:21.636Z,13.43
2016-06-30T08:49:21.054Z,13.82
2016-06-30T08:50:21.680Z,14.12
2016-06-30T08:51:21.688Z,13.62
2016-06-30T08:52:21.103Z,14.3
2016-06-30T08:53:21.124Z,14.2
2016-06-30T08:54:21.733Z,14.39
2016-06-30T08:55:21.764Z,14.88
2016-06-30T08:56:21.166Z,14.87
2016-06-30T08:57:21.789Z,15.17
2016-06-30T08:58:21.213Z,14.87
2016-06-30T08:59:21.849Z,15.36
2016-06-30T09:00:21.839Z,15.85
2016-06-30T09:01:21.234Z,15.94
2016-06-30T09:02:21.875Z,16.23
2016-06-30T09:03:21.878Z,15.93
2016-06-30T09:04:21.286Z,16.22
2016-06-30T09:05:21.315Z,16.61
2016-06-30T09:06:21.360Z,16.61
2016-06-30T09:07:21.932Z,16.89
2016-06-30T09:08:21.346Z,17.18
2016-06-30T09:09:21.968Z,17.77
2016-06-30T09:10:21.391Z,17.56
2016-06-30T09:11:21.385Z,17.86
2016-06-30T09:12:22.010Z,18.05
2016-06-30T09:13:22.022Z,17.96
2016-06-30T09:14:21.434Z,17.96
2016-06-30T09:15:21.455Z,17.76
2016-06-30T09:16:22.918Z,18.44
2016-06-30T09:17:22.125Z,18.44
2016-06-30T09:18:21.467Z,18.44
2016-06-30T09:19:22.098Z,18.44
2016-06-30T09:20:22.328Z,18.64
2016-06-30T09:21:21.693Z,19.12
2016-06-30T09:22:22.131Z,19.12
2016-06-30T09:23:21.567Z,19.12
2016-06-30T09:24:22.178Z,18.73
2016-06-30T09:25:22.169Z,19.12
2016-06-30T09:26:21.918Z,19.22
2016-06-30T09:27:22.766Z,18.93
2016-06-30T09:28:22.197Z,19.12
2016-06-30T09:29:22.992Z,19.12
2016-06-30T09:30:22.239Z,19.02
2016-06-30T09:31:21.642Z,19.12
2016-06-30T09:32:22.262Z,19.42
2016-06-30T09:33:22.270Z,19.21
2016-06-30T09:34:22.276Z,19.6
2016-06-30T09:35:21.688Z,19.6
2016-06-30T09:36:22.296Z,19.6
2016-06-30T09:37:22.308Z,20
2016-06-30T09:38:22.318Z,19.8
2016-06-30T09:39:22.335Z,19.8
2016-06-30T09:40:21.732Z,20.09
2016-06-30T09:41:22.362Z,20.09
2016-06-30T09:42:22.382Z,20
2016-06-30T09:43:21.774Z,19.7
2016-06-30T09:44:21.788Z,19.99
2016-06-30T09:45:21.788Z,20.17
2016-06-30T09:46:21.816Z,20.66
2016-06-30T09:47:21.831Z,20.37
2016-06-30T09:48:21.828Z,20.76
2016-06-30T09:49:22.450Z,21.25
2016-06-30T09:50:22.250Z,21.24
2016-06-30T09:51:23.427Z,21.24
2016-06-30T09:52:22.670Z,20.95
2016-06-30T09:53:23.294Z,20.85
2016-06-30T09:54:22.514Z,20.95
2016-06-30T09:55:21.912Z,21.44
2016-06-30T09:56:21.978Z,21.24
2016-06-30T09:57:22.886Z,20.84
2016-06-30T09:58:22.096Z,21.13
2016-06-30T09:59:21.958Z,21.23
2016-06-30T10:00:22.070Z,21.42
2016-06-30T10:01:22.071Z,21.23
2016-06-30T10:03:22.609Z,21.23
2016-06-30T10:04:22.642Z,21.42
2016-06-30T10:05:22.646Z,21.13
2016-06-30T10:06:22.909Z,20.74
2016-06-30T10:07:22.655Z,21.13
2016-06-30T10:08:22.691Z,20.84
2016-06-30T10:09:22.064Z,20.84
2016-06-30T10:10:22.069Z,20.64
2016-06-30T10:11:22.086Z,20.94
2016-06-30T10:12:22.709Z,21.52
2016-06-30T10:13:22.103Z,21.23
2016-06-30T10:14:22.120Z,21.23
2016-06-30T10:15:22.738Z,21.23
2016-06-30T10:16:22.138Z,20.94
2016-06-30T10:17:22.154Z,21.03
2016-06-30T10:18:22.773Z,21.03
2016-06-30T10:19:22.177Z,21.13
2016-06-30T10:20:22.181Z,20.74
2016-06-30T10:21:22.797Z,20.94
2016-06-30T10:22:22.812Z,20.94
2016-06-30T10:23:22.831Z,21.34
2016-06-30T10:24:22.221Z,20.95
2016-06-30T10:25:22.847Z,20.75
2016-06-30T10:26:22.857Z,21.24
2016-06-30T10:27:22.255Z,21.34
2016-06-30T10:28:22.275Z,21.23
2016-06-30T10:29:22.889Z,21.33
2016-06-30T10:30:22.908Z,21.42
2016-06-30T10:31:22.915Z,21.33
2016-06-30T10:32:22.322Z,21.62
2016-06-30T10:33:22.952Z,21.33
2016-06-30T10:35:22.961Z,21.42
2016-06-30T10:36:23.966Z,21.51
2016-06-30T10:37:23.947Z,21.6
2016-06-30T10:38:22.775Z,21.5
2016-06-30T10:39:23.026Z,21.31
2016-06-30T10:40:23.006Z,21.41
2016-06-30T10:41:22.412Z,21.8
2016-06-30T10:42:22.417Z,21.31
2016-06-30T10:43:23.047Z,21.5
2016-06-30T10:44:23.892Z,21.89
2016-06-30T10:45:23.067Z,21.5
2016-06-30T10:46:23.623Z,21.31
2016-06-30T10:47:23.869Z,21.41
2016-06-30T10:48:23.224Z,21.21
2016-06-30T10:49:22.492Z,21.01
2016-06-30T10:50:22.514Z,21.21
2016-06-30T10:51:22.508Z,21.31
2016-06-30T10:52:23.131Z,21.21
2016-06-30T10:53:22.548Z,21.41
2016-06-30T10:54:22.562Z,21.01
2016-06-30T10:55:22.551Z,21.01
2016-06-30T10:56:23.178Z,21.01
2016-06-30T10:57:23.182Z,21.01
2016-06-30T10:58:23.211Z,21.8
2016-06-30T10:59:23.205Z,21.3
2016-06-30T11:00:23.210Z,21.49
2016-06-30T11:01:23.231Z,21.78
2016-06-30T11:02:23.241Z,21.98
2016-06-30T11:03:23.236Z,21.98
2016-06-30T11:04:22.659Z,22.37
2016-06-30T11:05:23.268Z,22.37
2016-06-30T11:06:23.323Z,22.47
2016-06-30T11:07:23.288Z,21.98
2016-06-30T11:08:22.713Z,22.08
2016-06-30T11:09:23.299Z,22.17
2016-06-30T11:10:24.027Z,22.56
2016-06-30T11:11:23.731Z,22.08
2016-06-30T11:12:22.729Z,22.47
2016-06-30T11:13:23.647Z,22.47
2016-06-30T11:14:23.353Z,22.37
2016-06-30T11:15:23.365Z,22.47
2016-06-30T11:16:22.774Z,22.47
2016-06-30T11:17:23.393Z,22.17
2016-06-30T11:18:23.198Z,22.66
2016-06-30T11:19:22.797Z,22.85
2016-06-30T11:20:23.413Z,22.96
2016-06-30T11:21:23.432Z,22.96
2016-06-30T11:22:23.433Z,22.96
2016-06-30T11:23:23.445Z,22.96
2016-06-30T11:24:23.458Z,22.66
2016-06-30T11:25:23.469Z,22.37
2016-06-30T11:26:22.880Z,22.48
2016-06-30T11:27:23.502Z,23.07
2016-06-30T11:28:22.897Z,22.76
2016-06-30T11:29:22.903Z,22.97
2016-06-30T11:30:23.522Z,23.07
2016-06-30T11:31:23.530Z,22.87
2016-06-30T11:32:22.929Z,22.48
2016-06-30T11:33:23.554Z,22.58
2016-06-30T11:34:22.947Z,22.87
2016-06-30T11:35:22.965Z,23.07
2016-06-30T11:36:23.575Z,22.87
2016-06-30T11:37:22.987Z,22.97
2016-06-30T11:38:23.600Z,22.98
2016-06-30T11:39:23.018Z,22.69
2016-06-30T11:40:23.623Z,22.98
2016-06-30T11:41:23.030Z,22.59
2016-06-30T11:42:23.647Z,22.59
2016-06-30T11:43:23.699Z,22.69
2016-06-30T11:44:23.673Z,23.18
2016-06-30T11:45:23.066Z,23.18
2016-06-30T11:46:23.680Z,22.88
2016-06-30T11:47:23.699Z,22.98
2016-06-30T11:48:23.109Z,22.69
2016-06-30T11:49:23.111Z,23.18
2016-06-30T11:50:23.739Z,22.88
2016-06-30T11:51:23.127Z,22.78
2016-06-30T11:52:23.132Z,22.59
2016-06-30T11:53:23.774Z,22.98
2016-06-30T11:54:23.776Z,22.78
2016-06-30T11:55:23.167Z,22.67
2016-06-30T11:56:23.440Z,23.08
2016-06-30T11:57:23.424Z,23.37
2016-06-30T11:58:23.230Z,23.37
2016-06-30T11:59:23.605Z,23.37
2016-06-30T12:00:23.230Z,23.18
2016-06-30T12:01:23.242Z,23.37
2016-06-30T12:02:23.979Z,23.47
2016-06-30T12:03:24.834Z,23.57
2016-06-30T12:04:24.616Z,23.58
2016-06-30T12:05:23.883Z,23.09
2016-06-30T12:06:24.337Z,23
2016-06-30T12:07:23.905Z,23.1
2016-06-30T12:08:24.055Z,23.3
2016-06-30T12:09:23.925Z,23.2
2016-06-30T12:10:23.327Z,22.8
2016-06-30T12:11:23.938Z,22.61
2016-06-30T12:12:23.345Z,22.81
2016-06-30T12:13:23.374Z,23
2016-06-30T12:14:23.363Z,22.89
2016-06-30T12:15:23.994Z,23.28
2016-06-30T12:16:23.394Z,23.38
2016-06-30T12:17:23.397Z,23.58
2016-06-30T12:18:24.019Z,23.48
2016-06-30T12:19:23.425Z,23.66
2016-06-30T12:20:24.034Z,23.37
2016-06-30T12:21:23.435Z,23.66
2016-06-30T12:22:23.447Z,23.57
2016-06-30T12:23:24.063Z,23.47
2016-06-30T12:24:24.081Z,23.37
2016-06-30T12:25:23.487Z,23.57
2016-06-30T12:26:23.531Z,23.66
2016-06-30T12:27:24.962Z,23.47
2016-06-30T12:29:23.828Z,23.65
2016-06-30T12:30:24.141Z,23.75
2016-06-30T12:31:24.177Z,23.85
2016-06-30T12:32:24.156Z,23.94
2016-06-30T12:33:23.560Z,24.13
2016-06-30T12:34:24.182Z,23.83
2016-06-30T12:35:24.191Z,24.42
2016-06-30T12:37:25.460Z,24.32
2016-06-30T12:38:24.170Z,24.51
2016-06-30T12:39:24.229Z,24.32
2016-06-30T12:40:24.236Z,24.61
2016-06-30T12:41:23.664Z,24.79
2016-06-30T12:42:24.460Z,24.99
2016-06-30T12:43:24.574Z,24.9
2016-06-30T12:44:24.274Z,24.79
2016-06-30T12:45:24.289Z,24.79
2016-06-30T12:46:23.690Z,24.8
2016-06-30T12:47:24.307Z,24.8
2016-06-30T12:48:23.707Z,25.29
2016-06-30T12:49:23.724Z,25.1
2016-06-30T12:50:24.345Z,25.1
2016-06-30T12:51:23.752Z,25.29
2016-06-30T12:52:24.359Z,25.39
2016-06-30T12:53:24.377Z,25.57
2016-06-30T12:54:23.782Z,25.29
2016-06-30T12:55:24.397Z,25.2
2016-06-30T12:56:24.393Z,25.29
2016-06-30T12:57:24.412Z,25.49
2016-06-30T12:58:24.426Z,25.4
2016-06-30T12:59:23.816Z,25.21
2016-06-30T13:00:24.427Z,24.91
2016-06-30T13:01:23.834Z,25.31
2016-06-30T13:02:24.453Z,25.21
2016-06-30T13:03:23.875Z,25.11
2016-06-30T13:04:23.861Z,25.11
2016-06-30T13:05:24.491Z,25.21
2016-06-30T13:06:23.882Z,25.39
2016-06-30T13:07:23.891Z,25.29